createdAt,value
2023-01-28T00:02:07.007Z,94235.56
2023-01-28T00:04:36.703Z,94242.38
2023-01-28T00:07:05.797Z,94239.41
2023-01-28T00:09:34.923Z,94242.41
2023-01-28T00:12:04.392Z,94244.19
2023-01-28T00:14:33.513Z,94251.47
2023-01-28T00:17:07.006Z,94249.06
2023-01-28T00:19:36.023Z,94259.03
2023-01-28T00:22:05.187Z,94261.03
2023-01-28T00:24:35.006Z,94259.84
2023-01-28T00:27:04.051Z,94255.84
2023-01-28T00:29:33.316Z,94258.41
2023-01-28T00:32:04.609Z,94263.88
2023-01-28T00:34:33.807Z,94251.13
2023-01-28T00:37:03.537Z,94256.19
2023-01-28T00:39:34.046Z,94262.44
2023-01-28T00:42:04.069Z,94258.94
2023-01-28T00:44:33.055Z,94266.97
2023-01-28T00:47:07.246Z,94259.75
2023-01-28T00:49:36.227Z,94266.97
2023-01-28T00:52:05.349Z,94277.66
2023-01-28T00:54:34.858Z,94265.72
2023-01-28T00:57:04.244Z,94281.06
2023-01-28T00:59:33.370Z,94277.00
2023-01-28T01:02:12.770Z,94278.00
2023-01-28T01:04:55.215Z,94275.41
2023-01-28T01:07:36.074Z,94278.84
2023-01-28T01:10:06.206Z,94283.06
2023-01-28T01:12:35.478Z,94279.00
2023-01-28T01:15:04.794Z,94278.19
2023-01-28T01:17:34.098Z,94276.50
2023-01-28T01:20:05.818Z,94276.34
2023-01-28T01:22:36.843Z,94277.38
2023-01-28T01:25:07.133Z,94279.91
2023-01-28T01:27:38.549Z,94279.72
2023-01-28T01:30:09.687Z,94281.34
2023-01-28T01:32:39.344Z,94276.81
2023-01-28T01:35:12.226Z,94285.09
2023-01-28T01:37:45.935Z,94295.66
2023-01-28T01:40:15.510Z,94290.34
2023-01-28T01:42:45.839Z,94291.03
2023-01-28T01:45:18.106Z,94286.44
2023-01-28T01:47:49.755Z,94287.66
2023-01-28T01:50:27.523Z,94287.84
2023-01-28T01:52:59.820Z,94293.19
2023-01-28T01:55:33.016Z,94295.75
2023-01-28T01:58:06.764Z,94297.53
2023-01-28T02:00:37.707Z,94305.94
2023-01-28T02:03:08.397Z,94293.31
2023-01-28T02:05:40.952Z,94290.44
2023-01-28T02:08:25.637Z,94305.16
2023-01-28T02:10:58.841Z,94306.31
2023-01-28T02:13:31.903Z,94303.69
2023-01-28T02:16:05.500Z,94300.59
2023-01-28T02:18:34.990Z,94309.22
2023-01-28T02:21:33.854Z,94302.81
2023-01-28T02:24:20.939Z,94306.13
2023-01-28T02:27:05.551Z,94305.50
2023-01-28T02:29:45.090Z,94312.16
2023-01-28T02:32:21.061Z,94309.94
2023-01-28T02:34:55.336Z,94309.53
2023-01-28T02:37:29.303Z,94311.13
2023-01-28T02:40:02.973Z,94306.53
2023-01-28T02:42:35.494Z,94311.13
2023-01-28T02:45:17.212Z,94313.13
2023-01-28T02:48:00.738Z,94305.38
2023-01-28T02:50:40.998Z,94304.91
2023-01-28T02:53:38.734Z,94309.97
2023-01-28T02:56:19.480Z,94305.31
2023-01-28T02:58:58.276Z,94305.09
2023-01-28T03:01:35.791Z,94306.56
2023-01-28T03:04:09.774Z,94308.56
2023-01-28T03:06:43.385Z,94310.81
2023-01-28T03:09:26.398Z,94309.69
2023-01-28T03:12:22.296Z,94308.69
2023-01-28T03:15:11.400Z,94317.94
2023-01-28T03:18:04.452Z,94321.94
2023-01-28T03:21:01.137Z,94320.28
2023-01-28T03:23:55.217Z,94324.75
2023-01-28T03:26:44.219Z,94322.38
2023-01-28T03:29:33.818Z,94324.13
2023-01-28T03:32:24.237Z,94325.34
2023-01-28T03:35:13.411Z,94330.38
2023-01-28T03:37:43.121Z,94328.53
2023-01-28T03:40:39.832Z,94328.41
2023-01-28T03:43:08.998Z,94330.38
2023-01-28T03:45:39.362Z,94330.47
2023-01-28T03:48:08.629Z,94332.88
2023-01-28T03:50:39.109Z,94340.06
2023-01-28T03:53:16.569Z,94329.38
2023-01-28T03:55:52.247Z,94342.19
2023-01-28T03:58:23.782Z,94336.97
2023-01-28T04:00:53.364Z,94345.16
2023-01-28T04:03:23.171Z,94341.84
2023-01-28T04:06:08.652Z,94352.81
2023-01-28T04:09:01.619Z,94349.84
2023-01-28T04:11:54.168Z,94352.53
2023-01-28T04:14:32.300Z,94357.28
2023-01-28T04:17:16.449Z,94358.31
2023-01-28T04:19:47.688Z,94363.72
2023-01-28T04:22:20.149Z,94364.50
2023-01-28T04:24:49.882Z,94360.66
2023-01-28T04:27:20.511Z,94362.28
2023-01-28T04:29:51.439Z,94379.97
2023-01-28T04:32:40.223Z,94370.31
2023-01-28T04:35:26.499Z,94364.56
2023-01-28T04:38:11.409Z,94370.28
2023-01-28T04:40:58.768Z,94378.53
2023-01-28T04:43:33.719Z,94372.63
2023-01-28T04:46:21.503Z,94381.66
2023-01-28T04:49:11.538Z,94392.63
2023-01-28T04:51:53.611Z,94387.81
2023-01-28T04:54:44.481Z,94389.53
2023-01-28T04:57:13.798Z,94395.63
2023-01-28T04:59:43.033Z,94390.41
2023-01-28T05:02:12.166Z,94394.50
2023-01-28T05:04:43.026Z,94393.44
2023-01-28T05:07:21.382Z,94396.03
2023-01-28T05:09:53.011Z,94396.16
2023-01-28T05:12:22.270Z,94410.19
2023-01-28T05:14:51.411Z,94397.78
2023-01-28T05:17:23.239Z,94405.03
2023-01-28T05:19:52.347Z,94411.56
2023-01-28T05:22:25.048Z,94413.09
2023-01-28T05:25:14.233Z,94409.81
2023-01-28T05:27:44.279Z,94426.09
2023-01-28T05:30:14.645Z,94433.78
2023-01-28T05:32:45.154Z,94430.66
2023-01-28T05:35:16.103Z,94423.66
2023-01-28T05:37:46.113Z,94435.97
2023-01-28T05:40:18.071Z,94432.28
2023-01-28T05:42:48.239Z,94435.31
2023-01-28T05:45:43.713Z,94435.63
2023-01-28T05:48:17.161Z,94443.94
2023-01-28T05:51:07.836Z,94442.63
2023-01-28T05:53:39.839Z,94447.28
2023-01-28T05:56:11.092Z,94456.88
2023-01-28T05:58:41.597Z,94455.34
2023-01-28T06:01:11.807Z,94456.06
2023-01-28T06:03:45.766Z,94462.09
2023-01-28T06:06:15.073Z,94460.19
2023-01-28T06:08:44.710Z,94464.16
2023-01-28T06:11:24.546Z,94461.72
2023-01-28T06:13:56.774Z,94466.75
2023-01-28T06:16:35.332Z,94470.22
2023-01-28T06:19:26.616Z,94477.41
2023-01-28T06:21:56.373Z,94476.69
2023-01-28T06:24:25.482Z,94481.03
2023-01-28T06:26:55.977Z,94480.47
2023-01-28T06:29:25.248Z,94482.75
2023-01-28T06:31:54.354Z,94483.16
2023-01-28T06:34:23.600Z,94477.53
2023-01-28T06:36:53.634Z,94486.84
2023-01-28T06:39:23.045Z,94488.56
2023-01-28T06:41:52.215Z,94493.44
2023-01-28T06:44:23.734Z,94490.06
2023-01-28T06:46:52.740Z,94507.69
2023-01-28T06:49:22.294Z,94508.06
2023-01-28T06:51:51.661Z,94507.25
2023-01-28T06:54:20.725Z,94513.16
2023-01-28T06:56:49.834Z,94511.22
2023-01-28T06:59:18.793Z,94519.72
2023-01-28T07:01:49.243Z,94513.53
2023-01-28T07:04:19.048Z,94517.06
2023-01-28T07:06:48.665Z,94514.16
2023-01-28T07:09:18.313Z,94526.38
2023-01-28T07:11:47.428Z,94534.31
2023-01-28T07:14:16.506Z,94533.19
2023-01-28T07:16:45.610Z,94532.31
2023-01-28T07:19:16.132Z,94541.47
2023-01-28T07:21:45.259Z,94544.50
2023-01-28T07:24:14.471Z,94542.50
2023-01-28T07:26:43.505Z,94544.44
2023-01-28T07:29:13.498Z,94546.00
2023-01-28T07:31:43.149Z,94554.94
2023-01-28T07:34:12.574Z,94557.47
2023-01-28T07:36:43.270Z,94564.34
2023-01-28T07:39:12.531Z,94562.16
2023-01-28T07:41:41.610Z,94566.91
2023-01-28T07:44:13.214Z,94562.56
2023-01-28T07:46:42.243Z,94575.63
2023-01-28T07:49:11.414Z,94576.41
2023-01-28T07:51:40.626Z,94580.91
2023-01-28T07:54:12.559Z,94581.59
2023-01-28T07:56:42.400Z,94583.00
2023-01-28T07:59:11.630Z,94590.75
2023-01-28T08:01:40.864Z,94591.78
2023-01-28T08:04:10.205Z,94596.97
2023-01-28T08:06:39.360Z,94600.56
2023-01-28T08:09:10.021Z,94608.50
2023-01-28T08:11:41.221Z,94610.38
2023-01-28T08:14:11.922Z,94608.78
2023-01-28T08:16:41.125Z,94609.56
2023-01-28T08:19:10.416Z,94615.06
2023-01-28T08:21:39.485Z,94617.03
2023-01-28T08:24:09.068Z,94619.47
2023-01-28T08:26:38.260Z,94616.22
2023-01-28T08:29:08.932Z,94613.63
2023-01-28T08:31:38.031Z,94621.31
2023-01-28T08:34:07.117Z,94621.13
2023-01-28T08:36:38.757Z,94621.50
2023-01-28T08:39:07.807Z,94610.50
2023-01-28T08:41:36.939Z,94617.94
2023-01-28T08:44:07.608Z,94627.66
2023-01-28T08:46:36.801Z,94624.03
2023-01-28T08:49:06.063Z,94627.38
2023-01-28T08:51:35.198Z,94627.16
2023-01-28T08:54:04.231Z,94623.91
2023-01-28T08:56:33.917Z,94625.03
2023-01-28T08:59:02.985Z,94634.22
2023-01-28T09:01:34.355Z,94633.31
2023-01-28T09:04:03.634Z,94632.59
2023-01-28T09:06:32.849Z,94638.59
2023-01-28T09:09:02.187Z,94639.53
2023-01-28T09:11:31.930Z,94642.00
2023-01-28T09:14:01.213Z,94640.81
2023-01-28T09:16:30.997Z,94638.03
2023-01-28T09:19:02.116Z,94637.50
2023-01-28T09:21:31.247Z,94631.44
2023-01-28T09:24:00.352Z,94639.72
2023-01-28T09:26:29.463Z,94633.03
2023-01-28T09:29:01.388Z,94635.84
2023-01-28T09:31:30.648Z,94630.47
2023-01-28T09:34:01.250Z,94627.19
2023-01-28T09:36:30.264Z,94622.97
2023-01-28T09:38:59.453Z,94625.53
2023-01-28T09:41:30.937Z,94632.72
2023-01-28T09:44:08.640Z,94625.38
2023-01-28T09:46:39.674Z,94623.47
2023-01-28T09:49:19.930Z,94622.34
2023-01-28T09:51:52.601Z,94623.31
2023-01-28T09:54:30.592Z,94626.09
2023-01-28T09:57:07.836Z,94630.72
2023-01-28T09:59:37.680Z,94624.22
2023-01-28T10:02:37.253Z,94632.59
2023-01-28T10:05:22.739Z,94633.66
2023-01-28T10:08:03.768Z,94620.13
2023-01-28T10:10:40.072Z,94627.03
2023-01-28T10:13:24.850Z,94627.50
2023-01-28T10:16:16.884Z,94616.59
2023-01-28T10:18:50.524Z,94626.31
2023-01-28T10:21:26.766Z,94619.94
2023-01-28T10:24:04.151Z,94623.53
2023-01-28T10:26:37.792Z,94623.53
2023-01-28T10:29:15.557Z,94619.13
2023-01-28T10:31:55.987Z,94612.34
2023-01-28T10:34:25.204Z,94622.78
2023-01-28T10:36:57.377Z,94618.94
2023-01-28T10:39:27.685Z,94620.66
2023-01-28T10:41:58.987Z,94625.53
2023-01-28T10:44:34.395Z,94622.53
2023-01-28T10:47:11.825Z,94627.38
2023-01-28T10:49:45.355Z,94628.38
2023-01-28T10:52:16.984Z,94635.03
2023-01-28T10:54:46.155Z,94631.34
2023-01-28T10:57:20.124Z,94623.97
2023-01-28T10:59:51.837Z,94628.63
2023-01-28T11:02:28.378Z,94634.41
2023-01-28T11:05:07.762Z,94628.69
2023-01-28T11:07:38.414Z,94626.69
2023-01-28T11:10:27.032Z,94628.38
2023-01-28T11:12:59.947Z,94629.63
2023-01-28T11:15:29.309Z,94635.41
2023-01-28T11:18:01.400Z,94626.03
2023-01-28T11:20:37.243Z,94639.56
2023-01-28T11:23:20.036Z,94627.50
2023-01-28T11:25:49.806Z,94619.38
2023-01-28T11:28:23.741Z,94625.25
2023-01-28T11:30:55.848Z,94625.69
2023-01-28T11:33:29.993Z,94622.63
2023-01-28T11:36:06.663Z,94622.41
2023-01-28T11:38:37.914Z,94612.16
2023-01-28T11:41:07.520Z,94615.91
2023-01-28T11:43:36.588Z,94609.81
2023-01-28T11:46:22.255Z,94615.09
2023-01-28T11:49:03.293Z,94619.88
2023-01-28T11:51:43.540Z,94618.59
2023-01-28T11:54:34.815Z,94615.69
2023-01-28T11:57:19.256Z,94618.00
2023-01-28T12:00:01.366Z,94620.00
2023-01-28T12:02:53.231Z,94612.56
2023-01-28T12:05:43.429Z,94613.16
2023-01-28T12:08:23.745Z,94616.28
2023-01-28T12:11:14.318Z,94609.59
2023-01-28T12:13:57.010Z,94616.38
2023-01-28T12:16:56.779Z,94616.56
2023-01-28T12:19:48.048Z,94622.69
2023-01-28T12:22:37.122Z,94610.59
2023-01-28T12:25:21.652Z,94612.22
2023-01-28T12:28:04.680Z,94615.03
2023-01-28T12:30:45.538Z,94611.97
2023-01-28T12:33:36.967Z,94606.84
2023-01-28T12:36:17.884Z,94612.25
2023-01-28T12:38:57.180Z,94603.31
2023-01-28T12:41:31.604Z,94606.56
2023-01-28T12:44:07.642Z,94612.78
2023-01-28T12:46:46.976Z,94612.94
2023-01-28T12:49:22.781Z,94615.38
2023-01-28T12:52:01.586Z,94623.38
2023-01-28T12:54:37.363Z,94619.34
2023-01-28T12:57:07.831Z,94621.03
2023-01-28T12:59:45.633Z,94627.69
2023-01-28T13:02:24.793Z,94627.88
2023-01-28T13:05:05.825Z,94625.25
2023-01-28T13:07:40.134Z,94637.28
2023-01-28T13:10:18.602Z,94627.13
2023-01-28T13:12:49.541Z,94637.38
2023-01-28T13:15:22.806Z,94636.59
2023-01-28T13:18:00.183Z,94643.75
2023-01-28T13:20:39.781Z,94648.75
2023-01-28T13:23:25.957Z,94637.22
2023-01-28T13:25:57.288Z,94648.50
2023-01-28T13:28:32.935Z,94650.13
2023-01-28T13:31:08.962Z,94652.34
2023-01-28T13:33:41.193Z,94651.06
2023-01-28T13:36:26.370Z,94661.72
2023-01-28T13:39:04.058Z,94662.69
2023-01-28T13:41:40.684Z,94663.63
2023-01-28T13:44:21.245Z,94661.88
2023-01-28T13:46:51.795Z,94659.94
2023-01-28T13:49:30.290Z,94670.16
2023-01-28T13:52:09.145Z,94666.66
2023-01-28T13:54:40.742Z,94668.03
2023-01-28T13:57:41.569Z,94668.53
2023-01-28T14:00:25.182Z,94675.59
2023-01-28T14:03:23.585Z,94669.44
2023-01-28T14:06:08.952Z,94671.72
2023-01-28T14:09:07.785Z,94678.69
2023-01-28T14:12:09.114Z,94680.06
2023-01-28T14:15:07.758Z,94687.16
2023-01-28T14:17:45.559Z,94684.56
2023-01-28T14:20:25.326Z,94684.91
2023-01-28T14:23:01.379Z,94688.47
2023-01-28T14:25:37.036Z,94692.56
2023-01-28T14:28:09.089Z,94697.03
2023-01-28T14:30:50.722Z,94700.16
2023-01-28T14:33:24.821Z,94704.13
2023-01-28T14:35:55.725Z,94698.72
2023-01-28T14:38:26.499Z,94702.13
2023-01-28T14:40:57.640Z,94705.28
2023-01-28T14:43:28.761Z,94701.75
2023-01-28T14:46:11.045Z,94707.47
2023-01-28T14:48:49.859Z,94717.09
2023-01-28T14:51:38.107Z,94716.91
2023-01-28T14:54:27.261Z,94718.91
2023-01-28T14:57:22.450Z,94720.81
2023-01-28T14:59:54.632Z,94728.56
2023-01-28T15:02:25.511Z,94733.09
2023-01-28T15:04:55.723Z,94721.47
2023-01-28T15:07:28.505Z,94739.00
2023-01-28T15:10:05.075Z,94731.09
2023-01-28T15:12:39.190Z,94742.34
2023-01-28T15:15:13.682Z,94737.56
2023-01-28T15:17:43.297Z,94742.81
2023-01-28T15:20:19.980Z,94736.78
2023-01-28T15:22:52.342Z,94750.09
2023-01-28T15:25:24.733Z,94744.19
2023-01-28T15:27:57.441Z,94744.59
2023-01-28T15:30:28.592Z,94744.59
2023-01-28T15:33:07.931Z,94747.59
2023-01-28T15:35:37.955Z,94746.09
2023-01-28T15:38:10.305Z,94735.53
2023-01-28T15:40:44.288Z,94743.09
2023-01-28T15:43:25.076Z,94751.63
2023-01-28T15:45:56.813Z,94745.78
2023-01-28T15:48:28.394Z,94749.22
2023-01-28T15:51:02.529Z,94745.44
2023-01-28T15:53:36.888Z,94745.44
2023-01-28T15:56:10.437Z,94750.13
2023-01-28T15:58:41.875Z,94760.34
2023-01-28T16:01:20.020Z,94757.84
2023-01-28T16:04:02.040Z,94758.94
2023-01-28T16:06:37.778Z,94765.13
2023-01-28T16:09:17.227Z,94762.44
2023-01-28T16:11:46.942Z,94767.94
2023-01-28T16:14:26.414Z,94771.69
2023-01-28T16:16:57.325Z,94777.81
2023-01-28T16:19:35.339Z,94774.41
2023-01-28T16:22:04.869Z,94783.19
2023-01-28T16:24:37.666Z,94780.28
2023-01-28T16:27:09.093Z,94784.16
2023-01-28T16:29:38.309Z,94793.72
2023-01-28T16:32:35.686Z,94790.09
2023-01-28T16:35:14.139Z,94785.63
2023-01-28T16:37:43.537Z,94794.31
2023-01-28T16:40:17.386Z,94797.56
2023-01-28T16:42:48.733Z,94802.94
2023-01-28T16:45:20.862Z,94803.66
2023-01-28T16:47:50.111Z,94808.53
2023-01-28T16:50:22.135Z,94810.69
2023-01-28T16:52:53.364Z,94815.81
2023-01-28T16:55:24.569Z,94821.66
2023-01-28T16:57:56.083Z,94822.25
2023-01-28T17:00:27.659Z,94826.88
2023-01-28T17:02:58.356Z,94821.31
2023-01-28T17:05:27.818Z,94826.66
2023-01-28T17:08:00.209Z,94826.66
2023-01-28T17:10:31.258Z,94827.47
2023-01-28T17:13:00.480Z,94823.69
2023-01-28T17:15:29.680Z,94829.66
2023-01-28T17:17:58.973Z,94832.28
2023-01-28T17:20:29.712Z,94832.56
2023-01-28T17:22:59.648Z,94835.16
2023-01-28T17:25:30.152Z,94844.69
2023-01-28T17:27:59.252Z,94841.53
2023-01-28T17:30:28.613Z,94842.53
2023-01-28T17:32:57.812Z,94854.59
2023-01-28T17:35:26.978Z,94842.72
2023-01-28T17:37:57.707Z,94844.78
2023-01-28T17:40:31.584Z,94855.41
2023-01-28T17:43:01.222Z,94848.66
2023-01-28T17:45:32.724Z,94858.19
2023-01-28T17:48:02.167Z,94855.41
2023-01-28T17:50:31.318Z,94860.63
2023-01-28T17:53:01.252Z,94856.66
2023-01-28T17:55:31.784Z,94853.22
2023-01-28T17:58:01.075Z,94856.00
2023-01-28T18:00:30.606Z,94850.72
2023-01-28T18:02:59.729Z,94850.09
2023-01-28T18:05:28.915Z,94848.25
2023-01-28T18:07:57.959Z,94841.53
2023-01-28T18:10:27.031Z,94849.28
2023-01-28T18:12:58.362Z,94851.69
2023-01-28T18:15:29.298Z,94860.31
2023-01-28T18:17:59.128Z,94862.91
2023-01-28T18:20:28.353Z,94869.56
2023-01-28T18:22:57.709Z,94863.56
2023-01-28T18:25:27.479Z,94865.00
2023-01-28T18:27:58.359Z,94866.34
2023-01-28T18:30:27.706Z,94869.47
2023-01-28T18:32:56.913Z,94871.50
2023-01-28T18:35:26.242Z,94881.88
2023-01-28T18:37:55.705Z,94883.22
2023-01-28T18:40:24.955Z,94876.34
2023-01-28T18:42:54.162Z,94881.84
2023-01-28T18:45:24.878Z,94887.34
2023-01-28T18:47:54.136Z,94894.13
2023-01-28T18:50:23.358Z,94893.59
2023-01-28T18:52:55.554Z,94871.38
2023-01-28T18:55:25.680Z,94876.22
2023-01-28T18:57:54.867Z,94881.97
2023-01-28T19:00:26.023Z,94887.81
2023-01-28T19:02:55.104Z,94883.06
2023-01-28T19:05:24.444Z,94883.47
2023-01-28T19:07:53.421Z,94882.59
2023-01-28T19:10:24.199Z,94887.81
2023-01-28T19:12:53.364Z,94892.16
2023-01-28T19:15:22.491Z,94890.41
2023-01-28T19:17:53.646Z,94889.97
2023-01-28T19:20:22.699Z,94886.97
2023-01-28T19:22:52.446Z,94886.31
2023-01-28T19:25:21.601Z,94890.28
2023-01-28T19:27:54.841Z,94884.69
2023-01-28T19:30:24.151Z,94891.78
2023-01-28T19:32:55.416Z,94875.91
2023-01-28T19:35:24.632Z,94884.88
2023-01-28T19:37:53.832Z,94876.56
2023-01-28T19:40:23.442Z,94884.75
2023-01-28T19:42:54.556Z,94880.16
2023-01-28T19:45:23.658Z,94886.44
2023-01-28T19:47:55.035Z,94900.91
2023-01-28T19:50:25.997Z,94888.22
2023-01-28T19:52:55.359Z,94903.59
2023-01-28T19:55:24.500Z,94897.78
2023-01-28T19:57:53.577Z,94903.69
2023-01-28T20:00:22.703Z,94905.78
2023-01-28T20:02:54.372Z,94904.50
2023-01-28T20:05:23.450Z,94908.25
2023-01-28T20:07:52.601Z,94910.09
2023-01-28T20:10:21.875Z,94913.59
2023-01-28T20:12:51.204Z,94911.09
2023-01-28T20:15:20.536Z,94918.97
2023-01-28T20:17:49.698Z,94907.81
2023-01-28T20:20:20.573Z,94915.78
2023-01-28T20:22:49.913Z,94918.78
2023-01-28T20:25:19.505Z,94923.47
2023-01-28T20:27:49.701Z,94924.56
2023-01-28T20:30:19.355Z,94926.13
2023-01-28T20:32:48.390Z,94925.25
2023-01-28T20:35:18.490Z,94926.47
2023-01-28T20:37:49.070Z,94931.25
2023-01-28T20:40:18.868Z,94938.66
2023-01-28T20:42:47.928Z,94942.41
2023-01-28T20:45:17.495Z,94946.09
2023-01-28T20:47:46.878Z,94951.22
2023-01-28T20:50:17.332Z,94951.72
2023-01-28T20:52:48.783Z,94946.97
2023-01-28T20:55:18.245Z,94951.72
2023-01-28T20:57:47.329Z,94946.56
2023-01-28T21:00:17.317Z,94947.63
2023-01-28T21:02:46.754Z,94953.16
2023-01-28T21:05:16.134Z,94945.53
2023-01-28T21:07:45.286Z,94945.84
2023-01-28T21:10:15.977Z,94950.88
2023-01-28T21:12:45.898Z,94954.63
2023-01-28T21:15:16.095Z,94956.91
2023-01-28T21:17:45.356Z,94957.09
2023-01-28T21:20:15.528Z,94958.44
2023-01-28T21:22:52.471Z,94967.47
2023-01-28T21:25:23.727Z,94962.59
2023-01-28T21:27:52.858Z,94961.41
2023-01-28T21:30:22.230Z,94960.25
2023-01-28T21:32:51.223Z,94966.53
2023-01-28T21:35:21.561Z,94965.31
2023-01-28T21:37:50.594Z,94963.91
2023-01-28T21:40:20.561Z,94966.34
2023-01-28T21:42:55.172Z,94969.69
2023-01-28T21:45:24.277Z,94968.22
2023-01-28T21:47:54.423Z,94959.78
2023-01-28T21:50:24.495Z,94961.28
2023-01-28T21:52:53.576Z,94964.97
2023-01-28T21:55:22.669Z,94967.91
2023-01-28T21:58:14.331Z,94965.16
2023-01-28T22:00:43.893Z,94964.88
2023-01-28T22:03:13.566Z,94967.56
2023-01-28T22:05:42.714Z,94959.69
2023-01-28T22:08:11.977Z,94968.84
2023-01-28T22:10:41.035Z,94968.94
2023-01-28T22:13:11.473Z,94977.09
2023-01-28T22:15:41.029Z,94973.72
2023-01-28T22:18:10.989Z,94978.41
2023-01-28T22:20:40.290Z,94976.13
2023-01-28T22:23:10.057Z,94979.97
2023-01-28T22:25:39.082Z,94971.75
2023-01-28T22:28:08.853Z,94974.88
2023-01-28T22:30:39.268Z,94967.88
2023-01-28T22:33:08.480Z,94973.09
2023-01-28T22:35:37.585Z,94977.47
2023-01-28T22:38:06.868Z,94977.31
2023-01-28T22:40:36.516Z,94972.59
2023-01-28T22:43:05.658Z,94973.72
2023-01-28T22:45:35.269Z,94974.56
2023-01-28T22:48:06.847Z,94976.34
2023-01-28T22:50:35.926Z,94977.97
2023-01-28T22:53:05.505Z,94970.91
2023-01-28T22:55:34.712Z,94972.09
2023-01-28T22:58:05.711Z,94970.16
2023-01-28T23:00:34.947Z,94973.25
2023-01-28T23:03:06.993Z,94975.09
2023-01-28T23:05:37.388Z,94973.75
2023-01-28T23:08:11.728Z,94979.38
2023-01-28T23:10:47.511Z,94974.22
2023-01-28T23:13:18.427Z,94978.63
2023-01-28T23:16:06.849Z,94976.34
2023-01-28T23:18:54.955Z,94977.00
2023-01-28T23:21:42.717Z,94976.34
2023-01-28T23:24:22.941Z,94982.16
2023-01-28T23:26:53.701Z,94982.28
2023-01-28T23:29:25.046Z,94986.47
2023-01-28T23:32:01.213Z,94972.53
2023-01-28T23:34:34.645Z,94976.97
2023-01-28T23:37:05.370Z,94978.88
2023-01-28T23:39:35.515Z,94980.91
2023-01-28T23:42:12.279Z,94990.00
2023-01-28T23:44:41.347Z,94988.19
2023-01-28T23:47:11.250Z,94993.47
2023-01-28T23:49:42.186Z,94992.44
2023-01-28T23:52:11.292Z,94993.13
2023-01-28T23:54:41.108Z,94994.38
2023-01-28T23:57:10.240Z,94995.50
2023-01-28T23:59:39.273Z,94993.56
